Tiempo atmosférico en la estación meteorológica de Navalvillar De Ibor, Cáceres (923 m.)



Fecha
DESCASC
Temp. máxima en grados centígrados (hora)
DESCASC
Temp. mínima en grados centígrados (hora)
DESCASC
Temp. media en grados centígrados
DESCASC
Racha de viento máxima en m/sg (hora)
DESCASC
Velocidad máxima media en intervalos de 10 minutos(hora)
DESCASC
Precipitaciones diarias en mm
DESCASC
Precipitaciones de 00:00 a 06:00 en mm
DESCASC
Precipitaciones de 06:00 a 12:00 en mm
DESCASC
Precipitaciones de 12:00 a 18:00 en mm
DESCASC
Precipitaciones de 18:00 a 24:00 en mm
DESCASC
19-09-2019 -- (--) -- (--) -- -- (--) -- (--) 0 0 0 0 0
18-09-2019 -- (--) -- (--) -- -- (--) -- (--) 15.2 0 0 8.8 6.4
17-09-2019 26.1 (16:00) 14.3 (00:00) 20.2 8.33 (22:10) 4.72 (20:20) 4.2 0 0 0 4.2
16-09-2019 24.4 (15:50) 14.5 (00:00) 19.4 6.67 (00:30) 4.17 (00:10) 0 0 0 0 0
15-09-2019 23.6 (17:10) 12.9 (00:00) 18.3 6.39 (23:59) 4.17 (23:59) 1.6 0.6 0 1 0
14-09-2019 20.1 (15:10) 14.2 (00:00) 17.2 8.61 (08:30) 3.06 (10:20) 0.4 0.4 0 0 0
13-09-2019 19.8 (00:00) 14.4 (00:00) 17.1 11.11 (18:40) 4.44 (14:50) 1.6 0 0 1.6 0
12-09-2019 25.1 (15:00) 15.2 (00:00) 20.2 11.94 (09:20) 4.17 (09:30) 0 0 0 0 0
11-09-2019 24.3 (17:30) 11.4 (00:00) 17.8 10.28 (16:40) 3.89 (16:00) 0 0 0 0 0
10-09-2019 21.6 (17:20) 11.4 (06:20) 16.5 8.61 (02:50) 3.89 (02:50) 0 0 0 0 0
09-09-2019 27.1 (17:10) 15.8 (08:00) 21.5 11.11 (14:10) 4.44 (14:00) 0 0 0 0 0
08-09-2019 28 (15:10) 15.3 (00:00) 21.7 7.78 (16:20) 3.61 (16:20) 0 0 0 0 0
07-09-2019 27.8 (16:00) 15.3 (00:00) 21.5 7.22 (17:00) 3.61 (16:50) 0 0 0 0 0
06-09-2019 26.6 (17:10) 13 (00:00) 19.8 7.78 (13:30) 3.61 (12:50) 0 0 0 0 0
05-09-2019 28.7 (16:50) 17.7 (00:00) 23.2 7.78 (09:50) 3.61 (15:50) 0 0 0 0 0
04-09-2019 31.9 (16:40) 20 (00:00) 25.9 8.06 (15:10) 3.33 (15:30) 0 0 0 0 0
03-09-2019 31.4 (15:00) 19.5 (00:00) 25.4 6.39 (17:00) 2.78 (02:30) 0 0 0 0 0
02-09-2019 31.6 (18:20) 19 (00:00) 25.3 9.72 (15:50) 3.33 (13:00) 0 0 0 0 0
01-09-2019 31.7 (16:40) 20.1 (00:00) 25.9 7.5 (15:10) 3.33 (16:30) 0 0 0 0 0
31-08-2019 31 (14:10) 18.5 (00:00) 24.8 12.22 (01:40) 7.5 (02:10) 0 0 0 0 0
30-08-2019 32.6 (15:00) 19.2 (00:00) 25.9 11.11 (23:40) 5.28 (23:20) 0 0 0 0 0
29-08-2019 32.7 (17:30) 18.7 (00:00) 25.7 6.94 (20:00) 3.89 (20:00) 0 0 0 0 0
28-08-2019 -- (--) -- (--) -- -- (--) -- (--) -- -- -- -- --
27-08-2019 -- (--) -- (--) -- -- (--) -- (--) -- -- -- -- --
26-08-2019 -- (--) -- (--) -- -- (--) -- (--) -- 0 0 0 --
25-08-2019 30.7 (17:00) 21.2 (00:00) 26 8.89 (05:40) 5.83 (06:20) 0.4 0 0 0 0.4
24-08-2019 33 (17:10) 20.7 (00:00) 26.9 9.44 (14:10) 4.72 (04:00) 0 0 0 0 0
23-08-2019 31.7 (17:30) 19 (00:00) 25.4 9.17 (04:20) 5 (04:20) 0 0 0 0 0
22-08-2019 30.9 (17:30) 17.3 (00:00) 24.1 8.33 (02:40) 3.89 (02:40) 0 0 0 0 0
21-08-2019 29.6 (17:40) 17.2 (00:00) 23.4 7.5 (18:00) 3.33 (14:00) 0 0 0 0 0

Gráficas

Temp. máximas Temp. mínimas Temp. medias Precipitaciones Rachas de viento máximas Velocidades máximas media en intervalos de 10 minutos

Datos horarios

Fecha y hora oficial Temperatura (ºC) Velocidad del viento (km/h) Dirección del viento Racha (km/h) Dirección de racha Precipitación (mm) Presión (hPa) Tendencia (hPa) Humedad (%)
2019-09-19 23:00:00 18.3 5 Sudeste 10 Sur 0 -- -- 60
2019-09-19 22:00:00 18.9 8 Sudeste 17 Sur 0 -- -- 57
2019-09-19 21:00:00 20.2 11 Sur 16 Sudeste 0 -- -- 54
2019-09-19 20:00:00 21.6 7 Sur 13 Sudeste 0 -- -- 55
2019-09-19 19:00:00 24.7 3 Sudoeste 14 Sudoeste 0 -- -- 49
2019-09-19 18:00:00 26.5 4 Norte 14 Noroeste 0 -- -- 43
2019-09-19 17:00:00 25.2 5 Oeste 14 Este 0 -- -- 51
2019-09-19 16:00:00 26.2 4 Este 15 Nordeste 0 -- -- 44
2019-09-19 15:00:00 25.2 3 Sudeste 16 Norte 0 -- -- 51
2019-09-19 14:00:00 22.7 3 Noroeste 6 Norte 0 -- -- 61
2019-09-19 13:00:00 21.6 4 Sudoeste -- -- -- -- -- 70
2019-09-19 12:00:00 -- -- -- -- -- -- -- -- --
2019-09-19 11:00:00 -- -- -- -- -- -- -- -- --
2019-09-19 10:00:00 -- -- -- -- -- -- -- -- --
2019-09-19 09:00:00 -- -- -- -- -- -- -- -- --
2019-09-19 08:00:00 -- -- -- -- -- -- -- -- --
2019-09-19 07:00:00 -- -- -- -- -- -- -- -- --
2019-09-19 06:00:00 -- -- -- -- -- -- -- -- --
2019-09-19 05:00:00 -- -- -- -- -- -- -- -- --
2019-09-19 04:00:00 -- -- -- -- -- -- -- -- --
2019-09-19 03:00:00 -- -- -- -- -- -- -- -- --
2019-09-19 02:00:00 -- -- -- -- -- -- -- -- --
2019-09-19 01:00:00 -- -- -- -- -- -- -- -- --
2019-09-19 00:00:00 -- -- -- -- -- -- -- -- --
2019-09-18 23:00:00 -- -- -- -- -- -- -- -- --
2019-09-18 22:00:00 -- -- -- -- -- -- -- -- --
2019-09-18 21:00:00 -- -- -- -- -- -- -- -- --
2019-09-18 20:00:00 -- -- -- -- -- -- -- -- --
2019-09-18 19:00:00 -- -- -- -- -- -- -- -- --
2019-09-18 18:00:00 -- -- -- -- -- -- -- -- --
2019-09-18 17:00:00 23.4 4 Sudoeste 10 Oeste 0 -- -- 55
2019-09-18 16:00:00 24.8 3 Oeste 12 Noroeste 0 -- -- 52
2019-09-18 15:00:00 23.5 4 Norte 13 Noroeste 0 -- -- 59
2019-09-18 14:00:00 24 4 Sudeste 10 Oeste 0 -- -- 55
2019-09-18 13:00:00 22.4 4 Oeste 12 Norte 0 -- -- 62
2019-09-18 12:00:00 22.8 5 Noroeste 12 Noroeste 0 -- -- 57
2019-09-18 11:00:00 21.5 3 Norte 6 Norte 0 -- -- 65
2019-09-18 10:00:00 18.2 2 Sur 5 Norte 0 -- -- 83
2019-09-18 09:00:00 15.3 3 Sur 6 Sudoeste 0 -- -- 88
2019-09-18 08:00:00 15.6 2 Sudoeste 14 Sur 0 -- -- 83
2019-09-18 07:00:00 14.9 4 Sur 9 Sudoeste 0 -- -- 82
2019-09-18 06:00:00 16.8 3 Sur 32 Sudeste 0 -- -- 69
2019-09-18 05:00:00 18.6 15 Sur 28 Sur 0 -- -- 55
2019-09-18 04:00:00 18.7 16 Sur 30 Sur 0 -- -- 54
2019-09-18 03:00:00 18.1 13 Sur 21 Sur 0 -- -- 60
2019-09-18 02:00:00 16.6 9 Sur 14 Sur 0 -- -- 71
2019-09-18 01:00:00 17.3 7 Sudeste 18 Este 0 -- -- 73
2019-09-18 00:00:00 14.4 8 Sur 14 Sudoeste 2.2 -- -- 92
2019-09-17 23:00:00 14.9 5 Sudoeste 30 Sudoeste 0.4 -- -- 79
2019-09-17 22:00:00 16.6 6 Norte 25 Nordeste 0 -- -- 72
2019-09-17 21:00:00 18.7 6 Sudeste 24 Sudeste 0.2 -- -- 69
2019-09-15 18:00:00 21.8 4 Norte 17 Norte 0 -- -- 64
2019-09-15 17:00:00 23.2 6 Noroeste 14 Norte 0 -- -- 59
2019-09-15 16:00:00 20.8 3 Sur 10 Nordeste 0 -- -- 68
2019-09-15 15:00:00 18.9 2 Este 12 Nordeste 0 -- -- 87
2019-09-15 14:00:00 18.7 4 Sudeste 11 Norte 1 -- -- 86
2019-09-15 13:00:00 20 0 Calma 6 Norte 0 -- -- 73
2019-09-15 12:00:00 18.4 3 Noroeste 9 Oeste 0 -- -- 81
2019-09-15 11:00:00 18.2 3 Noroeste 8 Noroeste 0 -- -- 82
2019-09-15 10:00:00 16.2 0 Calma 10 Nordeste 0 -- -- 92
2019-09-15 09:00:00 13.6 3 Sudeste 6 Norte 0 -- -- 98
2019-09-15 08:00:00 13.2 4 Sur 9 Sudeste 0 -- -- 99
2019-09-15 07:00:00 13.4 2 Sudoeste 5 Sur 0 -- -- 97
2019-09-15 06:00:00 13.4 4 Sudoeste 6 Sudoeste 0 -- -- 95
2019-09-15 05:00:00 14.4 4 Sur 8 Sudeste 0.2 -- -- 93
2019-09-15 04:00:00 14.9 3 Sur 5 Sur 0.4 -- -- 93
2019-09-15 03:00:00 14.9 2 Sur 11 Sudeste 0 -- -- 90
2019-09-15 02:00:00 15.7 4 Sudeste 9 Nordeste 0 -- -- 87
2019-09-15 01:00:00 16.1 0 Calma 8 Sudeste 0 -- -- 82
2019-09-15 00:00:00 16.5 4 Sudeste 24 Sur 0 -- -- 78
2019-09-14 23:00:00 16.2 6 Sudeste 18 Sudeste 0 -- -- 79
2019-09-14 22:00:00 16.2 6 Sudeste 17 Sur 0 -- -- 80
2019-09-14 21:00:00 16.5 2 Noroeste 17 Sudeste 0 -- -- 77
2019-09-14 20:00:00 17.5 6 Sudeste 15 Este 0 -- -- 73
2019-09-14 19:00:00 18.3 5 Norte 18 Nordeste 0 -- -- 73
2019-09-14 18:00:00 18.5 6 Norte 22 Norte 0 -- -- 74
2019-09-14 17:00:00 18 4 Norte 21 Este 0 -- -- 76
2019-09-14 16:00:00 19.2 9 Norte 24 Norte 0 -- -- 69
2019-09-14 15:00:00 19.7 7 Nordeste 22 Nordeste 0 -- -- 67
2019-09-14 14:00:00 17.8 4 Nordeste 18 Sudeste 0 -- -- 70
2019-09-14 13:00:00 17.5 6 Este 18 Nordeste 0 -- -- 72
2019-09-14 12:00:00 16.5 4 Norte 22 Este 0 -- -- 76
2019-09-14 11:00:00 15.2 10 Sudeste 24 Sudeste 0 -- -- 83
2019-09-14 10:00:00 15.3 9 Sudeste 28 Este 0 -- -- 83
2019-09-14 09:00:00 15 9 Sudeste 31 Nordeste 0 -- -- 84
2019-09-14 08:00:00 14.4 10 Sur 25 Nordeste 0 -- -- 87
2019-09-14 07:00:00 14.4 10 Sudeste 23 Este 0 -- -- 89
2019-09-14 06:00:00 14.5 5 Sur 20 Este 0 -- -- 93
2019-09-14 05:00:00 14.4 8 Sur 15 Este 0 -- -- 93
2019-09-14 04:00:00 14.9 6 Sur 15 Este 0.4 -- -- 91
2019-09-14 03:00:00 15.4 4 Sudeste 17 Este 0 -- -- 88
2019-09-14 02:00:00 15.4 6 Sudeste 17 Sur 0 -- -- 88
2019-09-14 01:00:00 14.9 6 Sur 14 Sudeste 0 -- -- 88
2019-09-14 00:00:00 14.6 5 Sur 13 Sudeste 0 -- -- 88
2019-09-13 23:00:00 15 5 Sur 19 Nordeste 0 -- -- 87
2019-09-13 22:00:00 15.3 6 Oeste 25 Sudeste 0 -- -- 83
2019-09-13 21:00:00 15.6 8 Sudeste 22 Este 0 -- -- 80
2019-09-13 20:00:00 16.4 9 Sur 26 Nordeste 0 -- -- 75
2019-09-13 19:00:00 16.2 9 Este 40 Sudeste 0 -- -- 73
2019-09-13 18:00:00 16.5 10 Nordeste 26 Este 0 -- -- 77
2019-09-13 17:00:00 15.7 10 Norte 36 Nordeste 0 -- -- 87
2019-09-13 16:00:00 14.4 12 Norte 38 Este 1 -- -- 90
2019-09-13 15:00:00 15.6 12 Nordeste 37 Este 0.4 -- -- 73
2019-09-13 14:00:00 17.1 10 Sudeste 25 Nordeste 0.2 -- -- 65
2019-09-13 13:00:00 18.4 8 Sur 26 Sudeste 0 -- -- 52
2019-09-13 12:00:00 17 7 Sur 17 Este 0 -- -- 61
2019-09-13 11:00:00 18.3 6 Nordeste 26 Norte 0 -- -- 54
2019-09-13 10:00:00 18 8 Este 29 Nordeste 0 -- -- 53
2019-09-13 09:00:00 17.8 9 Norte 28 Sudeste 0 -- -- 50
2019-09-13 08:00:00 18 6 Sudeste 21 Este 0 -- -- 38
2019-09-13 07:00:00 17.2 6 Nordeste 18 Este 0 -- -- 41
2019-09-13 06:00:00 16.7 5 Nordeste 23 Este 0 -- -- 49
2019-09-13 05:00:00 16.9 2 Sur 15 Sudeste 0 -- -- 52
2019-09-13 04:00:00 17.8 4 Sur 26 Este 0 -- -- 50
2019-09-13 03:00:00 18.4 7 Sur 26 Nordeste 0 -- -- 48
2019-09-13 02:00:00 19 8 Nordeste 28 Nordeste 0 -- -- 49
2019-09-13 01:00:00 19.4 5 Este 18 Nordeste 0 -- -- 59
2019-09-13 00:00:00 19.8 6 Este 22 Este 0 -- -- 57
2019-09-12 23:00:00 19.5 5 Sudeste 17 Este 0 -- -- 58
2019-09-12 22:00:00 19.5 5 Sudeste 30 Este 0 -- -- 57
2019-09-12 21:00:00 19.9 8 Sudeste 21 Sudeste 0 -- -- 55
2019-09-12 20:00:00 20.3 6 Sudeste 22 Sudeste 0 -- -- 54
2019-09-12 19:00:00 20.2 8 Sur 24 Sudeste 0 -- -- 58
2019-09-12 18:00:00 21.1 8 Sudeste 24 Sur 0 -- -- 60
2019-09-12 17:00:00 23.5 10 Este 32 Nordeste 0 -- -- 45
2019-09-12 16:00:00 24.3 8 Norte 30 Nordeste 0 -- -- 44
2019-09-12 15:00:00 25.1 10 Nordeste 30 Norte 0 -- -- 42
2019-09-12 14:00:00 23.2 12 Norte 34 Nordeste 0 -- -- 47
2019-09-12 13:00:00 22.1 13 Norte 30 Norte 0 -- -- 48
2019-09-12 12:00:00 20.8 12 Norte 30 Nordeste 0 -- -- 51
2019-09-12 11:00:00 18.7 11 Nordeste 35 Este 0 -- -- 54
2019-09-12 10:00:00 16.9 12 Nordeste 43 Sudeste 0 -- -- 58
2019-09-12 09:00:00 16.2 12 Este 39 Nordeste 0 -- -- 60
2019-09-12 08:00:00 15.9 13 Este 38 Este 0 -- -- 59
2019-09-12 07:00:00 15.7 12 Este 40 Este 0 -- -- 59
2019-09-12 06:00:00 16.3 12 Sudeste 37 Nordeste 0 -- -- 55
2019-09-12 05:00:00 16.7 11 Sudeste 34 Este 0 -- -- 52
2019-09-12 04:00:00 16.9 12 Este 30 Este 0 -- -- 52
2019-09-12 03:00:00 17.7 11 Este 36 Sur 0 -- -- 49
2019-09-12 02:00:00 17.9 11 Este 32 Este 0 -- -- 49
2019-09-12 01:00:00 18.7 10 Sudeste 26 Este 0 -- -- 45
2019-09-12 00:00:00 19.3 7 Sudeste 33 Nordeste 0 -- -- 42
2019-09-11 23:00:00 20.2 9 Sudeste 32 Sudeste 0 -- -- 39
2019-09-11 22:00:00 21.1 8 Sudeste 27 Sur 0 -- -- 39
2019-09-11 21:00:00 21.4 10 Este 33 Este 0 -- -- 38
2019-09-11 20:00:00 21.9 8 Este 32 Norte 0 -- -- 37
2019-09-11 19:00:00 23.7 12 Norte 28 Norte 0 -- -- 35
2019-09-11 18:00:00 23.7 12 Norte 33 Este 0 -- -- 34
2019-09-11 17:00:00 24.1 12 Norte 37 Norte 0 -- -- 34
2019-09-11 16:00:00 23.5 14 Norte 33 Norte 0 -- -- 37
2019-09-11 15:00:00 22.1 11 Norte 24 Noroeste 0 -- -- 39
2019-09-11 14:00:00 21.5 6 Nordeste 22 Nordeste 0 -- -- 39
2019-09-11 13:00:00 19.7 9 Sudeste 32 Nordeste 0 -- -- 42
2019-09-11 12:00:00 18.5 11 Norte 33 Norte 0 -- -- 44
2019-09-11 11:00:00 16.4 11 Norte 26 Este 0 -- -- 50
2019-09-11 10:00:00 15.2 7 Nordeste 26 Este 0 -- -- 54
2019-09-11 09:00:00 12.8 8 Nordeste 25 Nordeste 0 -- -- 59
2019-09-11 08:00:00 11.5 5 Nordeste 22 Nordeste 0 -- -- 63
2019-09-11 07:00:00 11.8 7 Nordeste 22 Nordeste 0 -- -- 61
2019-09-11 06:00:00 11.4 5 Nordeste 22 Nordeste 0 -- -- 62
2019-09-11 05:00:00 12.2 8 Este 24 Este 0 -- -- 60
2019-09-11 04:00:00 12.2 6 Sur 22 Nordeste 0 -- -- 61
2019-09-11 03:00:00 12.7 5 Este 31 Sudeste 0 -- -- 60
2019-09-11 02:00:00 13.4 12 Sudeste 33 Este 0 -- -- 58
2019-09-11 01:00:00 13.8 8 Sudeste 22 Sudeste 0 -- -- 56
2019-09-11 00:00:00 15 6 Nordeste 18 Norte 0 -- -- 47
2019-09-10 23:00:00 15.5 6 Norte 19 Norte 0 -- -- 44
2019-09-10 22:00:00 15.9 8 Nordeste 19 Noroeste 0 -- -- 41
2019-09-10 21:00:00 16.3 7 Norte 19 Norte 0 -- -- 38
2019-09-10 20:00:00 17.6 8 Norte 27 Noroeste 0 -- -- 36
2019-09-10 19:00:00 19.7 12 Norte 30 Norte 0 -- -- 32
2019-09-10 18:00:00 21.4 8 Norte 24 Norte 0 -- -- 29
2019-09-10 17:00:00 21.2 8 Noroeste 23 Noroeste 0 -- -- 29
2019-09-10 16:00:00 21 8 Nordeste 27 Norte 0 -- -- 26
2019-09-10 15:00:00 20.4 5 Norte 23 Norte 0 -- -- 28
2019-09-10 14:00:00 19.9 5 Norte 19 Norte 0 -- -- 32
2019-09-10 13:00:00 18.6 9 Norte 21 Norte 0 -- -- 35
2019-09-10 12:00:00 16.9 5 Nordeste 23 Norte 0 -- -- 43
2019-09-10 11:00:00 15.4 11 Nordeste 26 Nordeste 0 -- -- 46
2019-09-10 10:00:00 13 0 Calma 9 Oeste 0 -- -- 74
2019-09-10 09:00:00 11.7 4 Sudoeste 13 Noroeste 0 -- -- 78
2019-09-10 08:00:00 11.5 5 Sudoeste 21 Sudoeste 0 -- -- 78
2019-09-10 07:00:00 11.8 6 Sudoeste 13 Oeste 0 -- -- 74
2019-09-10 06:00:00 11.9 6 Sudoeste 12 Sudoeste 0 -- -- 73
2019-09-10 05:00:00 13.2 6 Oeste 15 Noroeste 0 -- -- 67
2019-09-10 04:00:00 14.3 7 Sudoeste 27 Oeste 0 -- -- 63
2019-09-10 03:00:00 15 14 Sudoeste 31 Oeste 0 -- -- 60
2019-09-10 02:00:00 15.5 13 Sudoeste 27 Sudoeste 0 -- -- 57
2019-09-10 01:00:00 16.2 10 Sudoeste 21 Sudoeste 0 -- -- 53
2019-09-10 00:00:00 17.2 8 Oeste 24 Oeste 0 -- -- 47
2019-09-09 23:00:00 18.6 8 Sudoeste 28 Sudoeste 0 -- -- 42
2019-09-09 22:00:00 19.8 10 Sudoeste 28 Oeste 0 -- -- 39
2019-09-09 21:00:00 21.1 10 Sudoeste 29 Noroeste 0 -- -- 25
2019-09-09 20:00:00 22.4 12 Oeste 35 Oeste 0 -- -- 22
2019-09-09 19:00:00 23.8 10 Oeste 37 Oeste 0 -- -- 23
2019-09-09 18:00:00 25.6 11 Noroeste 39 Oeste 0 -- -- 22
2019-09-09 17:00:00 26.8 14 Oeste 34 Oeste 0 -- -- 21
2019-09-09 16:00:00 26.7 11 Oeste 35 Sudoeste 0 -- -- 21
2019-09-09 15:00:00 26.3 12 Oeste 40 Oeste 0 -- -- 23
2019-09-09 14:00:00 25.2 16 Sudoeste 35 Oeste 0 -- -- 24
2019-09-09 13:00:00 24.7 11 Oeste 32 Sudoeste 0 -- -- 24
2019-09-09 12:00:00 23.8 10 Oeste 31 Oeste 0 -- -- 25
2019-09-09 11:00:00 22.6 7 Noroeste 24 Noroeste 0 -- -- 26
2019-09-09 10:00:00 21 6 Oeste 19 Oeste 0 -- -- 30
2019-09-09 09:00:00 17.7 4 Noroeste 15 Oeste 0 -- -- 36
2019-09-09 08:00:00 15.8 3 Oeste 11 Oeste 0 -- -- 46
2019-09-09 07:00:00 16 4 Sur 9 Sudoeste 0 -- -- 46
2019-09-09 06:00:00 16.5 4 Sudoeste 8 Oeste 0 -- -- 44
2019-09-09 05:00:00 17.3 3 Sur 8 Sur 0 -- -- 43
2019-09-09 04:00:00 19.1 4 Sudoeste 15 Sur 0 -- -- 39
2019-09-09 03:00:00 18.5 3 Sur 16 Oeste 0 -- -- 42
2019-09-09 02:00:00 18.4 4 Sur 10 Sudoeste 0 -- -- 40
2019-09-09 01:00:00 20.2 5 Sur 12 Sur 0 -- -- 36
2019-09-09 00:00:00 20.1 6 Sur 12 Sur 0 -- -- 36
2019-09-08 23:00:00 20.4 5 Sudoeste 10 Oeste 0 -- -- 34
2019-09-08 22:00:00 21.3 5 Sudoeste 15 Sudoeste 0 -- -- 31
2019-09-08 21:00:00 22.8 5 Sudoeste 12 Oeste 0 -- -- 34
2019-09-08 20:00:00 24.7 4 Oeste 17 Noroeste 0 -- -- 31
2019-09-08 19:00:00 27.3 6 Noroeste 17 Noroeste 0 -- -- 29
2019-09-08 18:00:00 27.6 8 Noroeste 24 Noroeste 0 -- -- 28
2019-09-08 17:00:00 27.4 8 Noroeste 28 Norte 0 -- -- 31
2019-09-08 16:00:00 27.6 9 Noroeste 23 Noroeste 0 -- -- 33
2019-09-08 15:00:00 27.5 9 Noroeste 24 Noroeste 0 -- -- 37
2019-09-08 14:00:00 26.7 8 Oeste 21 Oeste 0 -- -- 39
2019-09-08 13:00:00 25.3 5 Norte 13 Noroeste 0 -- -- 43
2019-09-08 12:00:00 24.1 6 Norte 14 Noroeste 0 -- -- 52
2019-09-08 11:00:00 22.3 5 Oeste 12 Norte 0 -- -- 59
2019-09-08 10:00:00 20 5 Noroeste 13 Nordeste 0 -- -- 54
2019-09-08 09:00:00 16.6 0 Calma 8 Sudoeste 0 -- -- 65
2019-09-08 08:00:00 15.4 3 Sur 6 Sur 0 -- -- 62
2019-09-08 07:00:00 16.2 4 Sur 9 Sudeste 0 -- -- 58
2019-09-08 06:00:00 17.5 3 Norte 6 Este 0 -- -- 54
2019-09-08 05:00:00 20 3 Sur 14 Sudeste 0 -- -- 47
2019-09-08 04:00:00 19.9 5 Sudeste 15 Sudeste 0 -- -- 49
2019-09-08 03:00:00 20.5 9 Sur 22 Sudeste 0 -- -- 45
2019-09-08 02:00:00 21.1 6 Sur 12 Sudeste 0 -- -- 45
2019-09-08 01:00:00 21 5 Sur 14 Sudeste 0 -- -- 43
2019-09-08 00:00:00 20.7 4 Sur 9 Este 0 -- -- 41
2019-09-07 23:00:00 20.6 4 Sur 9 Este 0 -- -- 45
2019-09-07 22:00:00 21.2 3 Sudeste 9 Este 0 -- -- 45
2019-09-07 21:00:00 22.3 3 Sudeste 12 Norte 0 -- -- 44
2019-09-07 20:00:00 24.4 7 Norte 14 Nordeste 0 -- -- 41
2019-09-07 19:00:00 26.7 5 Norte 17 Norte 0 -- -- 37
2019-09-07 18:00:00 26.6 8 Norte 23 Norte 0 -- -- 38
2019-09-07 17:00:00 27.6 13 Norte 26 Norte 0 -- -- 37
2019-09-07 16:00:00 27.8 5 Nordeste 18 Noroeste 0 -- -- 35
2019-09-07 15:00:00 27.3 7 Norte 18 Norte 0 -- -- 38
2019-09-07 14:00:00 26.3 5 Nordeste 20 Noroeste 0 -- -- 39
2019-09-07 13:00:00 24.1 10 Norte 21 Norte 0 -- -- 38
2019-09-07 12:00:00 22.8 10 Norte 19 Norte 0 -- -- 39
2019-09-07 11:00:00 22 4 Norte 9 Norte 0 -- -- 36
2019-09-07 10:00:00 20.3 4 Norte 8 Norte 0 -- -- 37
2019-09-07 09:00:00 15.9 0 Calma 6 Este 0 -- -- 44
2019-09-07 08:00:00 15.6 3 Sur 10 Este 0 -- -- 42
2019-09-07 07:00:00 15.4 3 Sur 6 Nordeste 0 -- -- 40
2019-09-07 06:00:00 15.4 3 Sudeste 8 Este 0 -- -- 39
2019-09-07 05:00:00 16.2 4 Sur 6 Sudoeste 0 -- -- 37
2019-09-07 04:00:00 16.6 3 Sudeste 16 Sudeste 0 -- -- 35
2019-09-07 03:00:00 19.6 6 Este 21 Sudeste 0 -- -- 27
2019-09-07 02:00:00 20 7 Sur 18 Nordeste 0 -- -- 27
2019-09-07 01:00:00 20.5 6 Sur 17 Este 0 -- -- 28
2019-09-07 00:00:00 20.5 6 Este 14 Nordeste 0 -- -- 27
2019-09-06 23:00:00 20.2 5 Sur 14 Este 0 -- -- 31
2019-09-06 22:00:00 20.4 4 Sur 14 Sudeste 0 -- -- 33
2019-09-06 21:00:00 21 4 Sudeste 12 Norte 0 -- -- 35
2019-09-06 20:00:00 22.8 6 Norte 15 Norte 0 -- -- 33
2019-09-06 19:00:00 25.5 7 Norte 22 Norte 0 -- -- 30
2019-09-06 18:00:00 26.1 9 Norte 19 Norte 0 -- -- 28
2019-09-06 17:00:00 26.3 9 Norte 25 Norte 0 -- -- 28
2019-09-06 16:00:00 26 11 Norte 22 Nordeste 0 -- -- 28
2019-09-06 15:00:00 25.2 11 Norte 26 Norte 0 -- -- 28
2019-09-06 14:00:00 23.9 9 Norte 28 Norte 0 -- -- 31
2019-09-06 13:00:00 22.4 12 Norte 25 Noroeste 0 -- -- 32
2019-09-06 12:00:00 21.5 11 Norte 22 Norte 0 -- -- 33
2019-09-06 11:00:00 20 6 Este 20 Sudeste 0 -- -- 33
2019-09-06 10:00:00 17.6 5 Este 21 Nordeste 0 -- -- 38
2019-09-06 09:00:00 16.7 6 Sudeste 16 Este 0 -- -- 38
2019-09-06 08:00:00 15.3 5 Sudeste 19 Sudeste 0 -- -- 42
2019-09-06 07:00:00 13.3 2 Nordeste 8 Norte 0 -- -- 51
2019-09-06 06:00:00 14.2 4 Sur 10 Sudeste 0 -- -- 48
2019-09-06 05:00:00 16.1 2 Nordeste 14 Sudeste 0 -- -- 43
2019-09-06 04:00:00 17.8 4 Este 20 Sur 0 -- -- 39
2019-09-06 03:00:00 18.3 10 Sudeste 23 Sudeste 0 -- -- 36
2019-09-06 02:00:00 19 12 Sudeste 25 Sudeste 0 -- -- 34
2019-09-06 01:00:00 19.5 7 Sudeste 24 Este 0 -- -- 34
2019-09-06 00:00:00 20.7 8 Este 26 Nordeste 0 -- -- 32
2019-09-05 23:00:00 21.9 8 Sur 19 Este 0 -- -- 29
2019-09-05 22:00:00 22.8 6 Sudeste 16 Este 0 -- -- 30
2019-09-05 21:00:00 23.5 3 Sur 14 Este 0 -- -- 34
2019-09-05 20:00:00 25.5 5 Norte 18 Noroeste 0 -- -- 32
2019-09-05 19:00:00 27.7 8 Norte 23 Norte 0 -- -- 28
2019-09-05 18:00:00 28.4 8 Norte 22 Norte 0 -- -- 29
2019-09-05 17:00:00 28.6 9 Norte 26 Norte 0 -- -- 28
2019-09-05 16:00:00 27.9 9 Norte 24 Nordeste 0 -- -- 31
2019-09-05 15:00:00 27.4 7 Norte 27 Este 0 -- -- 36
2019-09-05 14:00:00 26.6 8 Norte 22 Norte 0 -- -- 38
2019-09-05 13:00:00 25.3 8 Nordeste 22 Sudeste 0 -- -- 42
2019-09-05 12:00:00 23.8 7 Este 22 Noroeste 0 -- -- 44
2019-09-05 11:00:00 22.7 6 Este 26 Nordeste 0 -- -- 45
2019-09-05 10:00:00 20.3 11 Sur 28 Sur 0 -- -- 57
2019-09-05 09:00:00 18.4 6 Norte 21 Sur 0 -- -- 52
2019-09-05 08:00:00 20.5 5 Norte 21 Nordeste 0 -- -- 40
2019-09-05 07:00:00 22.2 6 Sudeste 17 Sudeste 0 -- -- 35
2019-09-05 06:00:00 22.3 6 Sur 16 Sur 0 -- -- 34
2019-09-05 05:00:00 22.8 6 Sur 15 Sur 0 -- -- 33
2019-09-05 04:00:00 23.2 6 Sur 20 Sudeste 0 -- -- 31
2019-09-05 03:00:00 23.6 7 Sur 18 Este 0 -- -- 29
2019-09-05 02:00:00 23.1 4 Sur 9 Este 0 -- -- 29
2019-09-05 01:00:00 21.4 5 Sur 9 Sur 0 -- -- 30
2019-09-05 00:00:00 23 6 Sudoeste 14 Oeste 0 -- -- 28
2019-09-04 23:00:00 23.7 5 Sudoeste 13 Sudoeste 0 -- -- 27
2019-09-04 22:00:00 25.4 5 Sudoeste 13 Sudoeste 0 -- -- 25
2019-09-04 21:00:00 25.8 4 Sudoeste 18 Norte 0 -- -- 25
2019-09-04 20:00:00 28.4 6 Oeste 26 Noroeste 0 -- -- 21
2019-09-04 19:00:00 30.7 10 Noroeste 25 Norte 0 -- -- 21
2019-09-04 18:00:00 31.5 9 Noroeste 28 Norte 0 -- -- 19
2019-09-04 17:00:00 31.9 9 Oeste 28 Noroeste 0 -- -- 17
2019-09-04 16:00:00 31.5 9 Noroeste 29 Noroeste 0 -- -- 21
2019-09-04 15:00:00 31.2 10 Oeste 27 Noroeste 0 -- -- 16
2019-09-04 14:00:00 30.7 6 Noroeste 21 Norte 0 -- -- 22
2019-09-04 13:00:00 29.8 8 Noroeste 22 Noroeste 0 -- -- 23
2019-09-04 12:00:00 28.5 6 Noroeste 14 Oeste 0 -- -- 32
2019-09-04 11:00:00 27.6 4 Noroeste 10 Noroeste 0 -- -- 33
2019-09-04 10:00:00 25.3 3 Noroeste 8 Noroeste 0 -- -- 40
2019-09-04 09:00:00 20.8 4 Sur 7 Sur 0 -- -- 49
2019-09-04 08:00:00 20.1 5 Sur 8 Sur 0 -- -- 48
2019-09-04 07:00:00 20.4 4 Sudeste 9 Sudeste 0 -- -- 47
2019-09-04 06:00:00 20.7 5 Sur 8 Sur 0 -- -- 48
2019-09-04 05:00:00 21.6 5 Sudeste 9 Sudeste 0 -- -- 44
2019-09-04 04:00:00 21.9 5 Sur 8 Sur 0 -- -- 45
2019-09-04 03:00:00 22.1 5 Sur 8 Sur 0 -- -- 45
2019-09-04 02:00:00 22.1 5 Sur 8 Sur 0 -- -- 43
2019-09-04 01:00:00 22.2 6 Sur 8 Sur 0 -- -- 41
2019-09-04 00:00:00 23 5 Sur 7 Sur 0 -- -- 37
2019-09-03 23:00:00 23.1 5 Sur 7 Sur 0 -- -- 36
2019-09-03 22:00:00 23.6 4 Sur 6 Sur 0 -- -- 37
2019-09-03 21:00:00 25.2 4 Sur 11 Norte 0 -- -- 33
2019-09-03 20:00:00 28.3 4 Sudoeste 20 Noroeste 0 -- -- 33
2019-09-03 19:00:00 30.2 3 Sudoeste 17 Oeste 0 -- -- 33
2019-09-03 18:00:00 29.5 4 Oeste 17 Norte -- -- -- 36
2019-09-03 17:00:00 30.7 9 Noroeste 23 Oeste 0 -- -- 33
2019-09-03 16:00:00 29.8 5 Noroeste 19 Noroeste 0 -- -- 35
2019-09-03 15:00:00 31.4 6 Noroeste 21 Noroeste 0 -- -- 32
2019-09-03 14:00:00 30.9 9 Oeste 19 Oeste 0 -- -- 34
2019-09-03 13:00:00 30.2 6 Noroeste 15 Noroeste 0 -- -- 37
2019-09-03 12:00:00 28.7 5 Noroeste 15 Noroeste 0 -- -- 40
2019-09-03 11:00:00 27.3 4 Noroeste 12 Nordeste 0 -- -- 41
2019-09-03 10:00:00 24.9 0 Calma 5 Oeste 0 -- -- 46
2019-09-03 09:00:00 20.6 2 Sudeste 7 Sur 0 -- -- 56
2019-09-03 08:00:00 19.5 4 Sur 7 Sur 0 -- -- 56
2019-09-03 07:00:00 20.2 3 Sudeste 6 Sur 0 -- -- 54
2019-09-03 06:00:00 20.9 4 Sur 6 Sudeste 0 -- -- 51
2019-09-03 05:00:00 22.1 0 Calma 7 Sur 0 -- -- 48
2019-09-03 04:00:00 22.6 4 Sur 9 Sudeste 0 -- -- 47
2019-09-03 03:00:00 23.4 5 Sur 17 Sur 0 -- -- 47
2019-09-03 02:00:00 23.2 3 Sudeste 9 Sur 0 -- -- 49
2019-09-03 01:00:00 24 4 Sur 14 Sur 0 -- -- 48
2019-09-03 00:00:00 24.3 7 Sur 17 Sur 0 -- -- 47
2019-09-02 23:00:00 24.7 4 Sur 10 Sudeste 0 -- -- 46
2019-09-02 22:00:00 25.1 3 Sudeste 10 Este 0 -- -- 45
2019-09-02 21:00:00 25.9 3 Sudeste 7 Sudeste 0 -- -- 44
2019-09-02 20:00:00 28.1 2 Sur 11 Este 0 -- -- 41
2019-09-02 19:00:00 31.2 7 Nordeste 18 Noroeste 0 -- -- 36
2019-09-02 18:00:00 31.4 8 Norte 18 Norte 0 -- -- 36
2019-09-02 17:00:00 30.9 8 Norte 21 Norte 0 -- -- 37
2019-09-02 16:00:00 30.9 9 Noroeste 35 Sudeste 0 -- -- 38
2019-09-02 15:00:00 29.6 6 Nordeste 22 Nordeste 0 -- -- 44
2019-09-02 14:00:00 27.4 7 Norte 22 Norte 0 -- -- 47
2019-09-02 13:00:00 28.1 12 Norte 20 Norte 0 -- -- 45
2019-09-02 12:00:00 26.7 5 Noroeste 17 Norte 0 -- -- 48
2019-09-02 11:00:00 24 3 Norte 7 Norte 0 -- -- 52
2019-09-02 10:00:00 22.5 2 Nordeste 6 Este 0 -- -- 58
2019-09-02 09:00:00 19.9 0 Calma 9 Sur 0 -- -- 62
2019-09-02 08:00:00 19.4 3 Sudeste 10 Sur 0 -- -- 62
2019-09-02 07:00:00 19.3 3 Sudeste 8 Nordeste 0 -- -- 57
2019-09-02 06:00:00 20.2 2 Sudeste 11 Sudeste 0 -- -- 56
2019-09-02 05:00:00 21.2 3 Sudeste 14 Este 0 -- -- 53
2019-09-02 04:00:00 23.5 8 Sudeste 15 Sudeste 0 -- -- 47
2019-09-02 03:00:00 21.8 3 Sudeste 8 Sur 0 -- -- 48
2019-09-02 02:00:00 21.8 4 Sur 8 Sur 0 -- -- 49
2019-09-02 01:00:00 22.6 4 Sur 8 Sudoeste 0 -- -- 47
2019-09-02 00:00:00 23.2 4 Sur 6 Sur 0 -- -- 45
2019-09-01 23:00:00 23.2 4 Sur 9 Sudeste 0 -- -- 45
2019-09-01 22:00:00 24 4 Sur 9 Sudoeste 0 -- -- 45
2019-09-01 21:00:00 26 4 Sur 16 Oeste 0 -- -- 41
2019-09-01 20:00:00 28 4 Sudoeste 13 Oeste 0 -- -- 34
2019-09-01 19:00:00 29.1 6 Noroeste 23 Noroeste 0 -- -- 31
2019-09-01 18:00:00 30.5 8 Noroeste 22 Norte 0 -- -- 31
2019-09-01 17:00:00 31.1 5 Oeste 24 Oeste 0 -- -- 30
2019-09-01 16:00:00 30.8 8 Sudoeste 27 Noroeste 0 -- -- 33
2019-09-01 15:00:00 30.1 9 Oeste 26 Oeste 0 -- -- 34
2019-09-01 14:00:00 30.5 9 Noroeste 24 Oeste 0 -- -- 33
2019-09-01 13:00:00 30 6 Noroeste 21 Noroeste 0 -- -- 34
2019-09-01 12:00:00 29.1 8 Noroeste 17 Noroeste 0 -- -- 37
2019-09-01 11:00:00 28 5 Noroeste 13 Noroeste 0 -- -- 37
2019-09-01 10:00:00 24.8 3 Sudoeste 6 Sur 0 -- -- 49
2019-09-01 09:00:00 21.3 4 Sudoeste 9 Sudoeste 0 -- -- 52
2019-09-01 08:00:00 20.2 5 Sur 7 Sur 0 -- -- 53
2019-09-01 07:00:00 20.3 6 Sur 10 Sur 0 -- -- 53
2019-09-01 06:00:00 20.5 5 Sudoeste 9 Sudoeste 0 -- -- 53
2019-09-01 05:00:00 20.3 5 Sur 9 Sur 0 -- -- 55
2019-09-01 04:00:00 20.6 5 Sur 8 Sudoeste 0 -- -- 54
2019-09-01 03:00:00 20.7 4 Sur 7 Sur 0 -- -- 54
2019-09-01 02:00:00 21.2 5 Sudoeste 10 Sudoeste 0 -- -- 52
2019-09-01 01:00:00 23.6 5 Sudoeste 19 Sudoeste 0 -- -- 45
2019-09-01 00:00:00 23.3 4 Sur 11 Sudeste 0 -- -- 45
2019-08-31 23:00:00 23.5 5 Sudeste 10 Sur 0 -- -- 44
2019-08-31 22:00:00 23.5 6 Sur 9 Sur 0 -- -- 44
2019-08-31 21:00:00 24.6 6 Sur 8 Sur 0 -- -- 43
2019-08-31 20:00:00 28.3 2 Sur 11 Noroeste 0 -- -- 38
2019-08-31 19:00:00 29.2 4 Sur 19 Sur 0 -- -- 34
2019-08-31 18:00:00 26.4 9 Oeste 21 Sudeste 0 -- -- 41
2019-08-31 17:00:00 27.3 13 Sur 25 Sudoeste 0 -- -- 37
2019-08-31 16:00:00 29.9 7 Sudoeste 16 Sudoeste 0 -- -- 34
2019-08-31 15:00:00 28.8 3 Sudoeste 17 Noroeste 0 -- -- 37
2019-08-31 14:00:00 30.3 7 Sur 25 Noroeste 0 -- -- 34
2019-08-31 13:00:00 30.2 4 Noroeste 13 Nordeste 0 -- -- 34
2019-08-31 12:00:00 28.4 6 Norte 15 Norte 0 -- -- 36
2019-08-31 11:00:00 26.7 5 Norte 10 Nordeste 0 -- -- 39
2019-08-31 10:00:00 24.5 2 Norte 8 Norte 0 -- -- 45
2019-08-31 09:00:00 19.9 3 Sur 7 Sur 0 -- -- 57
2019-08-31 08:00:00 18.7 4 Sur 8 Sudoeste 0 -- -- 55
2019-08-31 07:00:00 18.8 3 Sur 6 Sur 0 -- -- 54
2019-08-31 06:00:00 19.1 5 Sur 8 Sudeste 0 -- -- 54
2019-08-31 05:00:00 20.1 4 Sur 8 Sur 0 -- -- 51
2019-08-31 04:00:00 21.5 2 Este 23 Sur 0 -- -- 47
2019-08-31 03:00:00 24 15 Sur 41 Sur 0 -- -- 38
2019-08-31 02:00:00 23.2 24 Sur 44 Sudeste 0 -- -- 44
2019-08-31 01:00:00 22.8 22 Sudeste 42 Sudeste 0 -- -- 47
2019-08-31 00:00:00 23.8 17 Sudeste 40 Sudeste 0 -- -- 43
2019-08-30 23:00:00 25.3 9 Sur 16 Sur 0 -- -- 40
2019-08-30 22:00:00 25.6 6 Sur 14 Sur 0 -- -- 40
2019-08-30 21:00:00 25.8 5 Sur 6 Sur 0 -- -- 42
2019-08-30 20:00:00 28.4 3 Sur 13 Oeste 0 -- -- 38
2019-08-30 19:00:00 30.8 5 Noroeste 16 Noroeste 0 -- -- 34
2019-08-30 18:00:00 30.8 7 Noroeste 15 Noroeste 0 -- -- 32
2019-08-30 17:00:00 29.2 4 Noroeste 12 Oeste 0 -- -- 36
2019-08-30 16:00:00 27.6 3 Noroeste 19 Noroeste 0 -- -- 39
2019-08-30 15:00:00 32.6 6 Oeste 16 Oeste 0 -- -- 28
2019-08-30 14:00:00 31.3 6 Sudoeste 17 Sudoeste 0 -- -- 32
2019-08-30 13:00:00 30.7 6 Norte 14 Este 0 -- -- 35
2019-08-30 12:00:00 29.6 4 Nordeste 12 Este 0 -- -- 35
2019-08-30 11:00:00 27.7 6 Norte 10 Norte 0 -- -- 39
2019-08-30 10:00:00 25.1 0 Calma 6 Sur 0 -- -- 45
2019-08-30 09:00:00 20.9 3 Sudeste 7 Sudeste 0 -- -- 57
2019-08-30 08:00:00 19.2 3 Sur 7 Sudeste 0 -- -- 56
2019-08-30 07:00:00 20.1 4 Sur 7 Sudeste 0 -- -- 52
2019-08-30 06:00:00 21 4 Sur 8 Sur 0 -- -- 50
2019-08-30 05:00:00 21.1 6 Sur 8 Sur 0 -- -- 51
2019-08-30 04:00:00 21.4 5 Sur 7 Sudeste 0 -- -- 49
2019-08-30 03:00:00 21.3 6 Sur 9 Sudeste 0 -- -- 47
2019-08-30 02:00:00 22.2 5 Sudoeste 11 Oeste 0 -- -- 45
2019-08-30 01:00:00 23 7 Sur 9 Sudeste 0 -- -- 44
2019-08-30 00:00:00 23.2 6 Sur 8 Sur 0 -- -- 43
2019-08-29 23:00:00 23.5 5 Sur 8 Sur 0 -- -- 41
2019-08-29 22:00:00 24.3 4 Sur 9 Sudoeste 0 -- -- 40
2019-08-29 21:00:00 26.2 3 Sur 22 Sudeste 0 -- -- 40
2019-08-29 20:00:00 28.4 14 Sudeste 25 Sudeste 0 -- -- 32
2019-08-29 19:00:00 31.4 4 Noroeste 21 Oeste 0 -- -- 32
2019-08-29 18:00:00 32.3 6 Oeste 20 Noroeste 0 -- -- 31
2019-08-29 17:00:00 32.1 6 Noroeste 20 Oeste 0 -- -- 30
2019-08-29 16:00:00 32.2 10 Norte 21 Noroeste 0 -- -- 30
2019-08-29 15:00:00 31 8 Oeste 19 Noroeste 0 -- -- 33
2019-08-29 14:00:00 31 6 Sur 17 Sur 0 -- -- 32
2019-08-29 13:00:00 30.2 7 Noroeste 24 Noroeste 0 -- -- 35
2019-08-29 12:00:00 28.9 6 Noroeste 13 Norte 0 -- -- 38
2019-08-29 11:00:00 26.7 4 Noroeste 9 Noroeste 0 -- -- 43
2019-08-29 10:00:00 24.8 0 Calma 5 Sur 0 -- -- 50
2019-08-29 09:00:00 19.8 4 Sur 8 Sur 0 -- -- 60
2019-08-29 08:00:00 18.7 6 Sur 8 Sur 0 -- -- 60
2019-08-29 07:00:00 19 5 Sur 9 Sudeste 0 -- -- 58
2019-08-29 06:00:00 19.3 5 Sur 8 Sur 0 -- -- 57
2019-08-29 05:00:00 19.7 5 Sur 8 Sur 0 -- -- 58
2019-08-29 04:00:00 20.8 4 Sudeste 10 Sudeste 0 -- -- 54
2019-08-29 03:00:00 21.5 7 Sur 10 Sur 0 -- -- 51
2019-08-29 02:00:00 20.9 5 Sudeste 8 Sudeste 0 -- -- 55
2019-08-29 01:00:00 20.9 5 Sur 8 Sur 0 -- -- 55
2019-08-29 00:00:00 21 4 Sur 7 Sudeste 0 -- -- 54
2019-08-28 23:00:00 21.8 4 Sur 11 Sur 0 -- -- 50
2019-08-28 22:00:00 22.2 4 Sur 10 Sudoeste 0 -- -- 51
2019-08-28 21:00:00 23.9 4 Sur -- -- -- -- -- 49
2019-08-28 20:00:00 -- -- -- -- -- -- -- -- --
2019-08-28 19:00:00 -- -- -- -- -- -- -- -- --
2019-08-28 18:00:00 -- -- -- -- -- -- -- -- --
2019-08-28 17:00:00 -- -- -- -- -- -- -- -- --
2019-08-28 16:00:00 -- -- -- -- -- -- -- -- --
2019-08-28 15:00:00 -- -- -- -- -- -- -- -- --
2019-08-28 14:00:00 -- -- -- -- -- -- -- -- --
2019-08-28 13:00:00 -- -- -- -- -- -- -- -- --
2019-08-28 12:00:00 -- -- -- -- -- -- -- -- --
2019-08-28 11:00:00 -- -- -- -- -- -- -- -- --
2019-08-28 10:00:00 -- -- -- -- -- -- -- -- --
2019-08-28 09:00:00 -- -- -- -- -- -- -- -- --
2019-08-28 08:00:00 -- -- -- -- -- -- -- -- --
2019-08-28 07:00:00 -- -- -- -- -- -- -- -- --
2019-08-28 06:00:00 -- -- -- -- -- -- -- -- --
2019-08-28 05:00:00 -- -- -- -- -- -- -- -- --
2019-08-28 04:00:00 -- -- -- -- -- -- -- -- --
2019-08-28 03:00:00 -- -- -- -- -- -- -- -- --
2019-08-28 02:00:00 -- -- -- -- -- -- -- -- --
2019-08-28 01:00:00 -- -- -- -- -- -- -- -- --
2019-08-28 00:00:00 -- -- -- -- -- -- -- -- --
2019-08-27 23:00:00 -- -- -- -- -- -- -- -- --
2019-08-27 22:00:00 -- -- -- -- -- -- -- -- --
2019-08-27 21:00:00 -- -- -- -- -- -- -- -- --
2019-08-27 20:00:00 -- -- -- -- -- -- -- -- --
2019-08-27 19:00:00 -- -- -- -- -- -- -- -- --
2019-08-27 18:00:00 -- -- -- -- -- -- -- -- --
2019-08-27 17:00:00 -- -- -- -- -- -- -- -- --
2019-08-27 16:00:00 -- -- -- -- -- -- -- -- --
2019-08-27 15:00:00 -- -- -- -- -- -- -- -- --
2019-08-27 14:00:00 -- -- -- -- -- -- -- -- --
2019-08-27 13:00:00 -- -- -- -- -- -- -- -- --
2019-08-27 12:00:00 -- -- -- -- -- -- -- -- --
2019-08-27 11:00:00 -- -- -- -- -- -- -- -- --
2019-08-27 10:00:00 -- -- -- -- -- -- -- -- --
2019-08-27 09:00:00 -- -- -- -- -- -- -- -- --
2019-08-27 08:00:00 -- -- -- -- -- -- -- -- --
2019-08-27 07:00:00 -- -- -- -- -- -- -- -- --
2019-08-27 06:00:00 -- -- -- -- -- -- -- -- --
2019-08-27 05:00:00 -- -- -- -- -- -- -- -- --
2019-08-27 04:00:00 -- -- -- -- -- -- -- -- --
2019-08-27 03:00:00 -- -- -- -- -- -- -- -- --
2019-08-27 02:00:00 -- -- -- -- -- -- -- -- --
2019-08-27 01:00:00 -- -- -- -- -- -- -- -- --
2019-08-27 00:00:00 -- -- -- -- -- -- -- -- --
2019-08-26 23:00:00 -- -- -- -- -- -- -- -- --
2019-08-26 22:00:00 -- -- -- -- -- -- -- -- --
2019-08-26 21:00:00 -- -- -- -- -- -- -- -- --
2019-08-26 20:00:00 17.1 10 Sudeste 36 Sur 1.2 -- -- 75
2019-08-26 19:00:00 22.8 5 Norte 13 Nordeste 0 -- -- 50
2019-08-26 18:00:00 23 4 Noroeste 10 Noroeste 0 -- -- 57
2019-08-26 17:00:00 22.5 5 Noroeste 13 Sudoeste 0 -- -- 59
2019-08-26 16:00:00 21.6 4 Sudeste 21 Noroeste 0 -- -- 67
2019-08-26 15:00:00 23.1 6 Norte 16 Oeste 0 -- -- 57
2019-08-26 14:00:00 23.8 3 Sudeste 14 Oeste 0 -- -- 49
2019-08-26 13:00:00 24.9 6 Noroeste 18 Noroeste 0 -- -- 46
2019-08-26 12:00:00 23.1 5 Oeste 21 Oeste 0 -- -- 55
2019-08-26 11:00:00 22.9 6 Oeste 18 Sur 0 -- -- 53
2019-08-26 10:00:00 21.6 9 Sur 18 Sudoeste 0 -- -- 56
2019-08-26 09:00:00 18.4 0 Calma 10 Este 0 -- -- 66
2019-08-26 08:00:00 18.3 6 Sudeste 13 Sudeste 0 -- -- 63
2019-08-26 07:00:00 18.6 3 Oeste 15 Sudeste 0 -- -- 63
2019-08-26 06:00:00 19.9 6 Sudeste 18 Sudeste 0 -- -- 60
2019-08-26 05:00:00 21 15 Sudeste 28 Sudeste 0 -- -- 56
2019-08-26 04:00:00 21.7 12 Sudeste 24 Este 0 -- -- 51
2019-08-26 03:00:00 21 10 Sur 28 Este 0 -- -- 54
2019-08-26 02:00:00 20.5 8 Sur 20 Este 0 -- -- 57
2019-08-26 01:00:00 20.7 5 Este 12 Nordeste 0 -- -- 61
2019-08-26 00:00:00 21.3 5 Norte 17 Sudoeste 0 -- -- 58
2019-08-25 23:00:00 22.6 5 Sudoeste 15 Noroeste 0 -- -- 52
2019-08-25 22:00:00 23.4 7 Sur 17 Sudoeste 0.4 -- -- 61
2019-08-25 21:00:00 27 2 Nordeste 8 Nordeste 0 -- -- 34
2019-08-25 20:00:00 28.8 2 Sudeste 14 Noroeste 0 -- -- 30
2019-08-25 19:00:00 30.4 7 Noroeste 22 Oeste 0 -- -- 29
2019-08-25 18:00:00 30.3 7 Oeste 21 Sudoeste 0 -- -- 31
2019-08-25 17:00:00 30.7 9 Sudoeste 21 Nordeste 0 -- -- 31
2019-08-25 16:00:00 30 8 Sudeste 24 Sudeste 0 -- -- 33
2019-08-25 15:00:00 30 8 Este 27 Este 0 -- -- 33
2019-08-25 14:00:00 29.2 5 Oeste 23 Sur 0 -- -- 36
2019-08-25 13:00:00 28.4 6 Noroeste 17 Nordeste 0 -- -- 40
2019-08-25 12:00:00 27.1 6 Sudoeste 15 Noroeste 0 -- -- 40
2019-08-25 11:00:00 24.9 5 Noroeste 12 Norte 0 -- -- 44
2019-08-25 10:00:00 21.3 5 Norte 19 Nordeste 0 -- -- 52
2019-08-25 09:00:00 21.2 5 Sudeste 12 Este 0 -- -- 49
2019-08-25 08:00:00 21.3 3 Sudeste 18 Sur 0 -- -- 44
2019-08-25 07:00:00 24.1 17 Sur 30 Sudeste 0 -- -- 37
2019-08-25 06:00:00 24.1 21 Sudeste 32 Sudeste 0 -- -- 36
2019-08-25 05:00:00 24.7 17 Sudeste 27 Sur 0 -- -- 30
2019-08-25 04:00:00 25.4 10 Sudeste 23 Este 0 -- -- 29
2019-08-25 03:00:00 25.6 8 Este 25 Sudeste 0 -- -- 28
2019-08-25 02:00:00 23.5 4 Sudeste 10 Sur 0 -- -- 34
2019-08-25 01:00:00 23.5 9 Sur 11 Sudeste 0 -- -- 33
2019-08-25 00:00:00 23.8 6 Sudeste 8 Sur 0 -- -- 34
2019-08-24 23:00:00 25.9 3 Sur 9 Sur 0 -- -- 29
2019-08-24 22:00:00 26.3 4 Sur 9 Sur 0 -- -- 28
2019-08-24 21:00:00 27.5 3 Sudeste 14 Nordeste 0 -- -- 28
2019-08-24 20:00:00 30.3 6 Norte 18 Norte 0 -- -- 24
2019-08-24 19:00:00 32.1 7 Norte 18 Noroeste 0 -- -- 21
2019-08-24 18:00:00 32.9 7 Norte 24 Norte 0 -- -- 22
2019-08-24 17:00:00 32.8 7 Sudeste 19 Noroeste 0 -- -- 21
2019-08-24 16:00:00 32.3 6 Sudeste 19 Este 0 -- -- 23
2019-08-24 15:00:00 31.9 7 Este 34 Este 0 -- -- 23
2019-08-24 14:00:00 31.6 8 Este 23 Nordeste 0 -- -- 24
2019-08-24 13:00:00 30.6 6 Sur 16 Sudeste 0 -- -- 24
2019-08-24 12:00:00 29.4 6 Norte 12 Noroeste 0 -- -- 28
2019-08-24 11:00:00 27.5 6 Norte 12 Norte 0 -- -- 32
2019-08-24 10:00:00 25.5 3 Norte 8 Noroeste 0 -- -- 33
2019-08-24 09:00:00 21 0 Calma 8 Oeste 0 -- -- 41
2019-08-24 08:00:00 22.1 4 Oeste 22 Sur 0 -- -- 35
2019-08-24 07:00:00 24.1 13 Sur 25 Sudeste 0 -- -- 30
2019-08-24 06:00:00 24.3 8 Sur 23 Sur 0 -- -- 29
2019-08-24 05:00:00 24.5 10 Sur 23 Sur 0 -- -- 28
2019-08-24 04:00:00 24.7 17 Sur 28 Sur -- -- -- 27
2019-08-24 03:00:00 25 11 Sur 26 Sur 0 -- -- 28
2019-08-24 02:00:00 25.4 8 Sur 27 Sudeste 0 -- -- 27
2019-08-24 01:00:00 25.3 16 Sur 26 Sudeste 0 -- -- 27
2019-08-24 00:00:00 24.7 7 Sur 15 Sur 0 -- -- 32
2019-08-23 23:00:00 25.1 5 Sur 10 Sudeste 0 -- -- 31
2019-08-23 22:00:00 25.4 4 Sur 9 Sudeste 0 -- -- 31
2019-08-23 21:00:00 26.8 3 Sudeste 11 Este 0 -- -- 30
2019-08-23 20:00:00 29.6 4 Sudeste 14 Noroeste 0 -- -- 26
2019-08-23 19:00:00 30.7 7 Norte 21 Norte 0 -- -- 27
2019-08-23 18:00:00 31.2 6 Nordeste 22 Norte 0 -- -- 26
2019-08-23 17:00:00 31.4 10 Norte 23 Nordeste 0 -- -- 27
2019-08-23 16:00:00 31.3 6 Nordeste 20 Nordeste 0 -- -- 26
2019-08-23 15:00:00 30.9 7 Nordeste 22 Nordeste 0 -- -- 27
2019-08-23 14:00:00 30.1 9 Norte 22 Norte 0 -- -- 32
2019-08-23 13:00:00 28.9 9 Norte 21 Norte 0 -- -- 37
2019-08-23 12:00:00 27.5 10 Norte 17 Norte 0 -- -- 40
2019-08-23 11:00:00 26.1 5 Norte 15 Noroeste 0 -- -- 43
2019-08-23 10:00:00 24.5 5 Norte 9 Noroeste 0 -- -- 48
2019-08-23 09:00:00 21.5 4 Norte 16 Sudeste 0 -- -- 55
2019-08-23 08:00:00 19.2 4 Sudeste 9 Sudeste 0 -- -- 57
2019-08-23 07:00:00 20.4 4 Sur 20 Sur 0 -- -- 52
2019-08-23 06:00:00 23.6 11 Sur 28 Sudeste 0 -- -- 43
2019-08-23 05:00:00 23.6 18 Sur 33 Sur 0 -- -- 42
2019-08-23 04:00:00 24.2 17 Sur 32 Sudeste 0 -- -- 39
2019-08-23 03:00:00 24.5 9 Sudeste 21 Sur 0 -- -- 31
2019-08-23 02:00:00 24.7 8 Sur 20 Sur 0 -- -- 32
2019-08-23 01:00:00 24.2 7 Sur 12 Sur 0 -- -- 30
2019-08-23 00:00:00 24.3 6 Sur 17 Sudeste 0 -- -- 28
2019-08-22 23:00:00 24.9 6 Sur 15 Sudeste 0 -- -- 27
2019-08-22 22:00:00 25.4 5 Sur 14 Este 0 -- -- 28
2019-08-22 21:00:00 26.2 4 Oeste 14 Norte 0 -- -- 30
2019-08-22 20:00:00 28.7 5 Norte 20 Norte 0 -- -- 30
2019-08-22 19:00:00 29.7 9 Norte 19 Nordeste 0 -- -- 31
2019-08-22 18:00:00 30.2 7 Nordeste 24 Norte 0 -- -- 31
2019-08-22 17:00:00 29.8 8 Norte 23 Nordeste 0 -- -- 32
2019-08-22 16:00:00 28 4 Noroeste 22 Norte 0 -- -- 37
2019-08-22 15:00:00 28.7 7 Nordeste 25 Norte 0 -- -- 37
2019-08-22 14:00:00 28.8 8 Sudeste 23 Norte 0 -- -- 37
2019-08-22 13:00:00 28.1 8 Norte 18 Nordeste 0 -- -- 40
2019-08-22 12:00:00 26.9 6 Sudeste 17 Este 0 -- -- 41
2019-08-22 11:00:00 25.5 7 Nordeste 19 Este 0 -- -- 40
2019-08-22 10:00:00 23.8 5 Nordeste 17 Este 0 -- -- 52
2019-08-22 09:00:00 20.9 2 Sur 13 Sur 0 -- -- 61
2019-08-22 08:00:00 17.6 0 Calma 7 Sur 0 -- -- 70
2019-08-22 07:00:00 17.8 2 Sur 6 Noroeste 0 -- -- 71
2019-08-22 06:00:00 19.6 4 Norte 18 Sudeste 0 -- -- 66
2019-08-22 05:00:00 18.8 3 Noroeste 9 Nordeste 0 -- -- 71
2019-08-22 04:00:00 19.6 4 Noroeste 22 Sur 0 -- -- 71
2019-08-22 03:00:00 21.6 5 Sur 30 Sur 0 -- -- 62
2019-08-22 02:00:00 22.4 3 Sudeste 18 Sur 0 -- -- 57
2019-08-22 01:00:00 23.1 6 Sur 15 Sudoeste 0 -- -- 52
2019-08-22 00:00:00 23.8 5 Sudeste 17 Este 0 -- -- 48
2019-08-21 23:00:00 23.6 4 Sudeste 12 Norte 0 -- -- 48
2019-08-21 22:00:00 23.5 3 Sur 9 Este 0 -- -- 48
2019-08-21 21:00:00 24.3 2 Sur 9 Nordeste 0 -- -- 39
2019-08-21 20:00:00 27.5 4 Norte 13 Norte 0 -- -- 38
2019-08-21 19:00:00 27.6 4 Norte 17 Norte 0 -- -- 36
2019-08-21 18:00:00 29.5 8 Este 27 Este 0 -- -- 35
2019-08-21 17:00:00 28.9 5 Sur 17 Oeste 0 -- -- 38
2019-08-21 16:00:00 25.5 7 Sur 18 Norte 0 -- -- 49
2019-08-21 15:00:00 27.2 6 Norte 21 Norte 0 -- -- 48
2019-08-21 14:00:00 26.1 12 Norte 22 Norte 0 -- -- 56
2019-08-21 13:00:00 24.9 4 Nordeste 17 Nordeste 0 -- -- 59
2019-08-21 12:00:00 23.7 6 Nordeste 20 Norte 0 -- -- 64
2019-08-21 11:00:00 21.5 4 Nordeste 14 Norte 0 -- -- 73
2019-08-21 10:00:00 20.6 4 Este 11 Este 0 -- -- 75
2019-08-21 09:00:00 18.4 3 Nordeste 13 Sudeste 0 -- -- 81
2019-08-21 08:00:00 17.8 4 Sudeste 11 Sudeste 0 -- -- 82
2019-08-21 07:00:00 17.6 5 Este 13 Sur 0 -- -- 81
2019-08-21 06:00:00 17.4 4 Nordeste 16 Norte 0 -- -- 81
2019-08-21 05:00:00 18.6 3 Sudeste 19 Este 0 -- -- 75
2019-08-21 04:00:00 20.4 12 Sudeste 27 Sudeste 0 -- -- 69
2019-08-21 03:00:00 21.7 6 Sudeste 17 Sudeste 0 -- -- 52
2019-08-21 02:00:00 22.6 8 Sur 22 Nordeste 0 -- -- 47
2019-08-21 01:00:00 24 6 Norte 18 Este 0 -- -- 42
2019-08-21 00:00:00 24.9 6 Este 19 Sudeste 0 -- -- 38